This is the latest recevied weather packets stored in our database for station/object OE3MHU-13. If no packets are shown the sender has not sent any weather packets the latest 10 day(s).
| Time | Temp. | Humidity | Pressure | Rain* | Wind** | Luminosity | Snow |
|---|---|---|---|---|---|---|---|
| 1787740485 | 27.78° C | 52% | 1020.1 hPa | 0 mm | - | - | - |
| 1787740184 | 27.78° C | 54% | 1020.2 hPa | 0 mm | - | - | - |
| 1787739882 | 27.22° C | 54% | 1020.3 hPa | 0 mm | - | - | - |
| 1787739584 | 27.78° C | 52% | 1020.3 hPa | 0 mm | - | - | - |
| 1787739282 | 27.78° C | 54% | 1020.3 hPa | 0 mm | - | - | - |
| 1787738981 | 27.22° C | 55% | 1020.2 hPa | 0 mm | - | - | - |
| 1787738682 | 27.22° C | 55% | 1020.3 hPa | 0 mm | - | - | - |
| 1787738384 | 27.22° C | 55% | 1020.3 hPa | 0 mm | - | - | - |
| 1787738081 | 26.67° C | 56% | 1020.4 hPa | 0 mm | - | - | - |
| 1787737778 | 26.67° C | 56% | 1020.3 hPa | 0 mm | - | - | - |
| 1787737469 | 26.67° C | 57% | 1020.4 hPa | 0 mm | - | - | - |
| 1787737168 | 26.11° C | 58% | 1020.4 hPa | 0 mm | - | - | - |
| 1787736867 | 25.56° C | 58% | 1020.5 hPa | 0 mm | - | - | - |
| 1787736570 | 25.56° C | 59% | 1020.5 hPa | 0 mm | - | - | - |
| 1787736267 | 25° C | 61% | 1020.6 hPa | 0 mm | - | - | - |
| 1787735965 | 25° C | 58% | 1020.6 hPa | 0 mm | - | - | - |
| 1787735665 | 25.56° C | 59% | 1020.7 hPa | 0 mm | - | - | - |
| 1787735365 | 25° C | 60% | 1020.6 hPa | 0 mm | - | - | - |
| 1787735065 | 23.89° C | 63% | 1020.5 hPa | 0 mm | - | - | - |
| 1787734765 | 23.33° C | 62% | 1020.6 hPa | 0 mm | - | - | - |
| 1787734468 | 24.44° C | 60% | 1020.5 hPa | 0 mm | - | - | - |
| 1787734165 | 23.89° C | 63% | 1020.6 hPa | 0 mm | - | - | - |
| 1787733864 | 23.33° C | 63% | 1020.5 hPa | 0 mm | - | - | - |
| 1787733566 | 23.89° C | 62% | 1020.4 hPa | 0 mm | - | - | - |
| 1787733264 | 23.89° C | 62% | 1020.5 hPa | 0 mm | - | - | - |
* Rain latest hour (hover to see other rain measurements)
** Current wind speed in m/s (hover to see current wind gust speed)